createdAt,value
2022-09-03T00:03:50.954Z,17.80
2022-09-03T00:08:09.155Z,17.90
2022-09-03T00:12:14.585Z,18.10
2022-09-03T00:16:21.179Z,18.20
2022-09-03T00:20:44.539Z,18.20
2022-09-03T00:24:49.479Z,18.30
2022-09-03T00:28:58.802Z,18.10
2022-09-03T00:33:06.257Z,18.20
2022-09-03T00:37:14.252Z,18.10
2022-09-03T00:41:30.668Z,18.00
2022-09-03T00:45:35.723Z,18.00
2022-09-03T00:49:40.782Z,17.90
2022-09-03T00:53:54.688Z,17.70
2022-09-03T00:58:08.710Z,17.60
2022-09-03T01:02:21.207Z,17.70
2022-09-03T01:06:26.287Z,17.70
2022-09-03T01:10:57.046Z,17.80
2022-09-03T01:15:13.615Z,17.80
2022-09-03T01:19:31.134Z,17.90
2022-09-03T01:24:02.119Z,18.00
2022-09-03T01:28:33.411Z,17.90
2022-09-03T01:32:58.269Z,17.80
2022-09-03T01:37:09.363Z,17.90
2022-09-03T01:41:35.991Z,17.80
2022-09-03T01:45:51.618Z,18.00
2022-09-03T01:49:52.556Z,18.00
2022-09-03T01:54:21.379Z,18.00
2022-09-03T01:58:22.371Z,18.00
2022-09-03T02:02:25.996Z,18.10
2022-09-03T02:06:29.750Z,18.20
2022-09-03T02:10:47.093Z,18.30
2022-09-03T02:14:48.410Z,18.30
2022-09-03T02:18:53.483Z,18.30
2022-09-03T02:22:56.207Z,18.20
2022-09-03T02:26:57.428Z,18.20
2022-09-03T02:30:58.987Z,18.30
2022-09-03T02:35:00.308Z,18.30
2022-09-03T02:39:01.552Z,18.50
2022-09-03T02:43:05.500Z,18.50
2022-09-03T02:47:08.729Z,18.50
2022-09-03T02:51:13.747Z,18.50
2022-09-03T02:55:13.425Z,18.60
2022-09-03T02:59:14.654Z,18.40
2022-09-03T03:03:15.870Z,18.30
2022-09-03T03:07:17.105Z,18.50
2022-09-03T03:11:19.311Z,18.50
2022-09-03T03:15:20.553Z,18.60
2022-09-03T03:19:21.770Z,18.60
2022-09-03T03:23:23.311Z,18.60
2022-09-03T03:27:25.342Z,18.70
2022-09-03T03:31:27.195Z,18.80
2022-09-03T03:35:28.445Z,18.90
2022-09-03T03:39:29.645Z,18.90
2022-09-03T03:43:30.840Z,18.80
2022-09-03T03:47:32.911Z,18.90
2022-09-03T03:51:35.432Z,18.90
2022-09-03T03:55:37.161Z,18.90
2022-09-03T03:59:38.366Z,18.70
2022-09-03T04:03:40.620Z,18.80
2022-09-03T04:07:43.258Z,18.90
2022-09-03T04:11:44.496Z,18.90
2022-09-03T04:15:46.063Z,18.60
2022-09-03T04:19:48.092Z,18.60
2022-09-03T04:23:50.819Z,18.60
2022-09-03T04:27:52.155Z,18.60
2022-09-03T04:32:11.759Z,18.60
2022-09-03T04:36:21.455Z,18.50
2022-09-03T04:40:22.656Z,18.40
2022-09-03T04:44:23.799Z,18.50
2022-09-03T04:48:26.399Z,18.40
2022-09-03T04:52:30.623Z,18.20
2022-09-03T04:56:34.039Z,18.40
2022-09-03T05:00:36.745Z,18.30
2022-09-03T05:04:39.279Z,18.20
2022-09-03T05:08:40.491Z,18.30
2022-09-03T05:12:42.319Z,18.30
2022-09-03T05:16:43.599Z,18.30
2022-09-03T05:20:46.574Z,18.40
2022-09-03T05:24:48.192Z,18.30
2022-09-03T05:28:56.494Z,18.40
2022-09-03T05:32:57.700Z,18.40
2022-09-03T05:36:59.237Z,18.30
2022-09-03T05:41:02.235Z,18.20
2022-09-03T05:45:10.389Z,18.10
2022-09-03T05:49:11.616Z,18.30
2022-09-03T05:53:12.832Z,18.30
2022-09-03T05:57:14.041Z,18.50
2022-09-03T06:01:20.889Z,18.50
2022-09-03T06:05:22.213Z,18.20
2022-09-03T06:09:23.802Z,18.10
2022-09-03T06:13:25.463Z,18.10
2022-09-03T06:17:26.711Z,18.10
2022-09-03T06:21:28.638Z,18.20
2022-09-03T06:25:31.164Z,18.20
2022-09-03T06:29:34.895Z,18.40
2022-09-03T06:33:37.328Z,18.40
2022-09-03T06:37:39.989Z,18.50
2022-09-03T06:41:41.225Z,18.70
2022-09-03T06:45:42.515Z,18.70
2022-09-03T06:49:44.192Z,18.50
2022-09-03T06:53:48.288Z,18.40
2022-09-03T06:57:52.755Z,18.40
2022-09-03T07:01:54.477Z,18.20
2022-09-03T07:06:01.241Z,18.30
2022-09-03T07:10:02.962Z,18.30
2022-09-03T07:14:04.798Z,18.30
2022-09-03T07:18:06.440Z,18.10
2022-09-03T07:22:09.564Z,17.60
2022-09-03T07:26:14.086Z,18.20
2022-09-03T07:30:15.315Z,18.20
2022-09-03T07:34:16.555Z,18.50
2022-09-03T07:38:19.121Z,18.50
2022-09-03T07:42:20.395Z,18.70
2022-09-03T07:46:24.399Z,18.60
2022-09-03T07:50:25.756Z,18.60
2022-09-03T07:54:27.258Z,18.70
2022-09-03T07:58:30.092Z,18.80
2022-09-03T08:02:31.411Z,18.90
2022-09-03T08:06:33.528Z,18.80
2022-09-03T08:10:35.859Z,18.50
2022-09-03T08:14:37.196Z,18.60
2022-09-03T08:18:40.054Z,18.50
2022-09-03T08:22:41.247Z,18.50
2022-09-03T08:26:45.250Z,18.50
2022-09-03T08:30:45.603Z,18.50
2022-09-03T08:34:46.882Z,18.60
2022-09-03T08:38:51.292Z,18.60
2022-09-03T08:43:02.661Z,18.20
2022-09-03T08:47:13.614Z,18.00
2022-09-03T08:51:17.436Z,18.40
2022-09-03T08:55:41.353Z,19.00
2022-09-03T08:59:42.575Z,19.80
2022-09-03T09:04:02.500Z,19.50
2022-09-03T09:08:11.225Z,19.90
2022-09-03T09:12:42.740Z,20.30
2022-09-03T09:16:42.903Z,20.80
2022-09-03T09:20:59.918Z,21.50
2022-09-03T09:25:04.991Z,21.80
2022-09-03T09:29:11.496Z,22.30
2022-09-03T09:33:14.507Z,22.10
2022-09-03T09:37:16.796Z,22.30
2022-09-03T09:41:25.147Z,22.00
2022-09-03T09:45:25.448Z,21.90
2022-09-03T09:49:39.975Z,21.40
2022-09-03T09:53:41.256Z,21.50
2022-09-03T09:57:42.645Z,21.50
2022-09-03T10:01:45.044Z,21.80
2022-09-03T10:05:59.259Z,21.80
2022-09-03T10:10:04.281Z,21.70
2022-09-03T10:14:09.340Z,22.10
2022-09-03T10:18:26.162Z,22.00
2022-09-03T10:22:28.029Z,22.70
2022-09-03T10:26:32.549Z,23.60
2022-09-03T10:30:46.858Z,23.50
2022-09-03T10:35:01.385Z,23.60
2022-09-03T10:39:24.549Z,23.20
2022-09-03T10:43:53.410Z,22.90
2022-09-03T10:48:31.835Z,22.90
2022-09-03T10:52:52.276Z,23.80
2022-09-03T10:57:09.603Z,24.40
2022-09-03T11:01:39.440Z,24.80
2022-09-03T11:05:44.683Z,24.20
2022-09-03T11:09:49.728Z,23.90
2022-09-03T11:14:04.128Z,23.40
2022-09-03T11:18:21.318Z,24.00
2022-09-03T11:22:23.931Z,24.50
2022-09-03T11:26:27.256Z,25.40
2022-09-03T11:30:32.368Z,25.70
2022-09-03T11:34:46.849Z,25.10
2022-09-03T11:38:48.019Z,25.50
2022-09-03T11:42:49.357Z,25.60
2022-09-03T11:46:58.115Z,25.70
2022-09-03T11:50:59.360Z,26.00
2022-09-03T11:55:01.394Z,25.60
2022-09-03T11:59:15.483Z,26.40
2022-09-03T12:03:17.254Z,26.10
2022-09-03T12:07:34.343Z,26.40
2022-09-03T12:11:57.835Z,26.40
2022-09-03T12:16:19.276Z,26.80
2022-09-03T12:20:24.577Z,27.20
2022-09-03T12:24:28.815Z,27.20
2022-09-03T12:28:30.404Z,26.30
2022-09-03T12:32:36.958Z,26.00
2022-09-03T12:36:40.309Z,26.20
2022-09-03T12:44:48.166Z,26.20
2022-09-03T12:53:10.264Z,26.00
2022-09-03T12:57:15.269Z,25.90
2022-09-03T13:01:20.396Z,25.90
2022-09-03T13:05:25.463Z,25.60
2022-09-03T13:09:31.432Z,25.70
2022-09-03T13:13:36.476Z,25.70
2022-09-03T13:17:53.137Z,25.80
2022-09-03T13:22:21.223Z,25.80
2022-09-03T13:26:32.392Z,26.20
2022-09-03T13:30:37.449Z,26.50
2022-09-03T13:34:45.491Z,26.60
2022-09-03T13:38:53.568Z,26.20
2022-09-03T13:43:07.112Z,26.70
2022-09-03T13:47:13.951Z,27.30
2022-09-03T13:51:29.124Z,27.40
2022-09-03T13:55:43.440Z,27.10
2022-09-03T13:59:48.495Z,27.10
2022-09-03T14:03:56.870Z,27.00
2022-09-03T14:08:01.908Z,26.90
2022-09-03T14:12:18.627Z,27.20
2022-09-03T14:16:51.483Z,26.90
2022-09-03T14:20:59.925Z,26.80
2022-09-03T14:25:04.905Z,26.40
2022-09-03T14:29:15.524Z,26.10
2022-09-03T14:33:40.373Z,25.80
2022-09-03T14:37:51.107Z,26.50
2022-09-03T14:42:08.344Z,26.80
2022-09-03T14:46:30.095Z,26.30
2022-09-03T14:50:58.382Z,26.40
2022-09-03T14:55:05.983Z,26.40
2022-09-03T14:59:22.588Z,25.50
2022-09-03T15:03:36.593Z,25.70
2022-09-03T15:07:50.768Z,26.20
2022-09-03T15:12:05.792Z,26.50
2022-09-03T15:16:43.078Z,26.50
2022-09-03T15:21:14.237Z,26.70
2022-09-03T15:25:28.417Z,26.80
2022-09-03T15:29:50.682Z,26.70
2022-09-03T15:34:07.652Z,26.90
2022-09-03T15:38:25.001Z,26.60
2022-09-03T15:42:28.652Z,26.50
2022-09-03T15:46:52.120Z,26.60
2022-09-03T15:51:03.799Z,26.20
2022-09-03T15:55:09.073Z,25.90
2022-09-03T15:59:20.077Z,25.70
2022-09-03T16:03:44.871Z,25.50
2022-09-03T16:07:55.940Z,25.50
2022-09-03T16:12:16.384Z,25.20
2022-09-03T16:16:21.688Z,25.00
2022-09-03T16:20:26.734Z,24.80
2022-09-03T16:24:44.198Z,24.70
2022-09-03T16:28:56.366Z,24.70
2022-09-03T16:33:21.670Z,24.70
2022-09-03T16:38:00.595Z,24.60
2022-09-03T16:42:24.220Z,24.80
2022-09-03T16:46:35.017Z,25.00
2022-09-03T16:50:58.298Z,25.10
2022-09-03T16:55:30.706Z,25.20
2022-09-03T16:59:50.876Z,25.30
2022-09-03T17:03:55.900Z,25.40
2022-09-03T17:08:07.184Z,25.50
2022-09-03T17:12:12.242Z,25.10
2022-09-03T17:16:26.572Z,25.40
2022-09-03T17:20:49.970Z,24.70
2022-09-03T17:24:55.588Z,24.00
2022-09-03T17:29:23.961Z,23.90
2022-09-03T17:33:33.689Z,24.00
2022-09-03T17:37:43.282Z,24.00
2022-09-03T17:42:04.614Z,23.90
2022-09-03T17:46:21.955Z,24.00
2022-09-03T17:50:29.998Z,23.70
2022-09-03T17:54:47.341Z,23.70
2022-09-03T17:58:53.384Z,23.40
2022-09-03T18:03:07.469Z,23.30
2022-09-03T18:07:27.796Z,22.90
2022-09-03T18:11:33.825Z,22.70
2022-09-03T18:15:48.219Z,22.60
2022-09-03T18:20:19.914Z,22.70
2022-09-03T18:24:55.682Z,22.70
2022-09-03T18:29:25.053Z,22.50
2022-09-03T18:33:45.214Z,22.50
2022-09-03T18:38:05.081Z,22.70
2022-09-03T18:42:31.447Z,22.60
2022-09-03T18:51:38.255Z,22.30
2022-09-03T18:56:24.727Z,22.00
2022-09-03T19:00:48.167Z,21.70
2022-09-03T19:05:26.891Z,21.50
2022-09-03T19:09:56.253Z,21.20
2022-09-03T19:14:18.664Z,21.20
2022-09-03T19:18:56.421Z,21.60
2022-09-03T19:23:15.910Z,21.80
2022-09-03T19:27:57.276Z,21.70
2022-09-03T19:32:20.569Z,21.60
2022-09-03T19:36:52.787Z,21.50
2022-09-03T19:41:19.587Z,21.10
2022-09-03T19:46:00.203Z,20.90
2022-09-03T19:50:33.062Z,20.90
2022-09-03T19:54:53.716Z,20.90
2022-09-03T19:59:16.103Z,20.90
2022-09-03T20:03:35.649Z,20.80
2022-09-03T20:07:56.390Z,20.80
2022-09-03T20:12:03.253Z,20.70
2022-09-03T20:16:10.237Z,20.70
2022-09-03T20:20:33.578Z,20.70
2022-09-03T20:24:45.116Z,20.70
2022-09-03T20:29:20.471Z,20.50
2022-09-03T20:33:42.072Z,20.60
2022-09-03T20:37:55.260Z,20.40
2022-09-03T20:42:21.107Z,20.40
2022-09-03T20:46:48.799Z,20.20
2022-09-03T20:51:02.864Z,20.20
2022-09-03T20:55:08.144Z,20.10
2022-09-03T20:59:22.338Z,19.90
2022-09-03T21:03:54.049Z,19.90
2022-09-03T21:08:02.049Z,19.90
2022-09-03T21:12:19.105Z,19.90
2022-09-03T21:16:42.333Z,19.90
2022-09-03T21:20:56.347Z,19.80
2022-09-03T21:25:04.365Z,19.70
2022-09-03T21:29:24.924Z,19.60
2022-09-03T21:33:32.851Z,19.60
2022-09-03T21:37:36.262Z,19.50
2022-09-03T21:41:51.927Z,19.60
2022-09-03T21:46:02.819Z,19.30
2022-09-03T21:50:23.540Z,19.20
2022-09-03T21:54:30.574Z,19.20
2022-09-03T21:58:41.681Z,19.20
2022-09-03T22:02:42.955Z,19.10
2022-09-03T22:07:04.679Z,18.90
2022-09-03T22:11:22.263Z,18.90
2022-09-03T22:15:23.776Z,18.70
2022-09-03T22:19:25.188Z,18.70
2022-09-03T22:23:49.980Z,18.60
2022-09-03T22:28:03.553Z,18.70
2022-09-03T22:32:24.961Z,18.60
2022-09-03T22:36:27.753Z,18.50
2022-09-03T22:40:55.010Z,18.50
2022-09-03T22:45:17.948Z,18.50
2022-09-03T22:49:25.982Z,18.40
2022-09-03T22:58:02.164Z,18.50
2022-09-03T23:02:21.666Z,18.30
2022-09-03T23:06:32.919Z,18.30
2022-09-03T23:11:07.144Z,18.40
2022-09-03T23:15:13.651Z,18.20
2022-09-03T23:23:23.809Z,18.20
2022-09-03T23:27:28.770Z,18.20
2022-09-03T23:31:30.255Z,18.20
2022-09-03T23:35:44.054Z,18.20
2022-09-03T23:40:17.877Z,18.10
2022-09-03T23:44:41.336Z,17.90
2022-09-03T23:49:09.614Z,17.90
2022-09-03T23:53:17.709Z,17.90
2022-09-03T23:57:25.732Z,17.90
